sensor_id;sensor_type;location;lat;lon;timestamp;temperature;humidity
68276;DHT22;55106;51.438;-0.098;2022-08-14T00:00:27;21.20;63.22
68276;DHT22;55106;51.438;-0.098;2022-08-14T00:02:53;21.17;63.56
68276;DHT22;55106;51.438;-0.098;2022-08-14T00:05:20;21.14;63.82
68276;DHT22;55106;51.438;-0.098;2022-08-14T00:07:47;21.12;63.98
68276;DHT22;55106;51.438;-0.098;2022-08-14T00:10:16;21.08;64.11
68276;DHT22;55106;51.438;-0.098;2022-08-14T00:12:48;21.01;64.50
68276;DHT22;55106;51.438;-0.098;2022-08-14T00:15:22;20.96;64.69
68276;DHT22;55106;51.438;-0.098;2022-08-14T00:17:48;20.91;64.98
68276;DHT22;55106;51.438;-0.098;2022-08-14T00:20:15;20.90;65.39
68276;DHT22;55106;51.438;-0.098;2022-08-14T00:22:40;20.90;65.66
68276;DHT22;55106;51.438;-0.098;2022-08-14T00:25:07;20.87;66.19
68276;DHT22;55106;51.438;-0.098;2022-08-14T00:27:33;20.93;65.85
68276;DHT22;55106;51.438;-0.098;2022-08-14T00:29:58;20.87;66.85
68276;DHT22;55106;51.438;-0.098;2022-08-14T00:32:23;20.83;67.28
68276;DHT22;55106;51.438;-0.098;2022-08-14T00:34:49;20.81;67.44
68276;DHT22;55106;51.438;-0.098;2022-08-14T00:37:14;20.79;67.85
68276;DHT22;55106;51.438;-0.098;2022-08-14T00:39:40;20.75;67.76
68276;DHT22;55106;51.438;-0.098;2022-08-14T00:42:05;20.69;68.53
68276;DHT22;55106;51.438;-0.098;2022-08-14T00:44:31;20.68;68.40
68276;DHT22;55106;51.438;-0.098;2022-08-14T00:46:56;20.62;69.71
68276;DHT22;55106;51.438;-0.098;2022-08-14T00:49:22;20.63;71.01
68276;DHT22;55106;51.438;-0.098;2022-08-14T00:51:48;20.63;71.62
68276;DHT22;55106;51.438;-0.098;2022-08-14T00:54:14;20.62;71.83
68276;DHT22;55106;51.438;-0.098;2022-08-14T00:56:40;20.62;73.35
68276;DHT22;55106;51.438;-0.098;2022-08-14T00:59:06;20.61;73.78
68276;DHT22;55106;51.438;-0.098;2022-08-14T01:01:32;20.57;74.52
68276;DHT22;55106;51.438;-0.098;2022-08-14T01:03:58;20.61;75.09
68276;DHT22;55106;51.438;-0.098;2022-08-14T01:06:26;20.68;75.10
68276;DHT22;55106;51.438;-0.098;2022-08-14T01:08:52;20.65;75.67
68276;DHT22;55106;51.438;-0.098;2022-08-14T01:11:20;20.63;75.71
68276;DHT22;55106;51.438;-0.098;2022-08-14T01:13:46;20.63;75.59
68276;DHT22;55106;51.438;-0.098;2022-08-14T01:16:16;20.59;75.75
68276;DHT22;55106;51.438;-0.098;2022-08-14T01:18:42;20.53;76.14
68276;DHT22;55106;51.438;-0.098;2022-08-14T01:21:30;20.51;76.34
68276;DHT22;55106;51.438;-0.098;2022-08-14T01:23:56;20.51;76.58
68276;DHT22;55106;51.438;-0.098;2022-08-14T01:26:23;20.42;76.75
68276;DHT22;55106;51.438;-0.098;2022-08-14T01:28:50;20.42;76.94
68276;DHT22;55106;51.438;-0.098;2022-08-14T01:31:21;20.36;77.14
68276;DHT22;55106;51.438;-0.098;2022-08-14T01:33:49;20.35;77.39
68276;DHT22;55106;51.438;-0.098;2022-08-14T01:36:16;20.32;77.47
68276;DHT22;55106;51.438;-0.098;2022-08-14T01:38:44;20.26;77.63
68276;DHT22;55106;51.438;-0.098;2022-08-14T01:41:14;20.22;77.91
68276;DHT22;55106;51.438;-0.098;2022-08-14T01:43:50;20.20;78.07
68276;DHT22;55106;51.438;-0.098;2022-08-14T01:46:17;20.14;78.35
68276;DHT22;55106;51.438;-0.098;2022-08-14T01:48:44;20.11;78.47
68276;DHT22;55106;51.438;-0.098;2022-08-14T01:51:12;20.11;78.45
68276;DHT22;55106;51.438;-0.098;2022-08-14T01:53:44;20.13;78.38
68276;DHT22;55106;51.438;-0.098;2022-08-14T01:56:11;20.04;78.57
68276;DHT22;55106;51.438;-0.098;2022-08-14T01:58:37;20.03;78.41
68276;DHT22;55106;51.438;-0.098;2022-08-14T02:01:04;19.93;78.68
68276;DHT22;55106;51.438;-0.098;2022-08-14T02:03:31;19.85;78.58
68276;DHT22;55106;51.438;-0.098;2022-08-14T02:06:00;19.76;78.97
68276;DHT22;55106;51.438;-0.098;2022-08-14T02:08:27;19.73;79.13
68276;DHT22;55106;51.438;-0.098;2022-08-14T02:10:58;19.69;79.22
68276;DHT22;55106;51.438;-0.098;2022-08-14T02:13:48;19.59;79.15
68276;DHT22;55106;51.438;-0.098;2022-08-14T02:16:17;19.57;79.41
68276;DHT22;55106;51.438;-0.098;2022-08-14T02:18:43;19.56;79.13
68276;DHT22;55106;51.438;-0.098;2022-08-14T02:21:11;19.57;79.10
68276;DHT22;55106;51.438;-0.098;2022-08-14T02:23:38;19.55;79.03
68276;DHT22;55106;51.438;-0.098;2022-08-14T02:26:18;19.52;78.72
68276;DHT22;55106;51.438;-0.098;2022-08-14T02:28:44;19.53;78.66
68276;DHT22;55106;51.438;-0.098;2022-08-14T02:31:12;19.50;78.36
68276;DHT22;55106;51.438;-0.098;2022-08-14T02:33:37;19.46;78.37
68276;DHT22;55106;51.438;-0.098;2022-08-14T02:36:03;19.42;78.43
68276;DHT22;55106;51.438;-0.098;2022-08-14T02:38:29;19.40;78.27
68276;DHT22;55106;51.438;-0.098;2022-08-14T02:40:56;19.35;78.42
68276;DHT22;55106;51.438;-0.098;2022-08-14T02:43:22;19.29;78.29
68276;DHT22;55106;51.438;-0.098;2022-08-14T02:45:48;19.25;78.63
68276;DHT22;55106;51.438;-0.098;2022-08-14T02:48:14;19.20;78.56
68276;DHT22;55106;51.438;-0.098;2022-08-14T02:50:40;19.15;78.58
68276;DHT22;55106;51.438;-0.098;2022-08-14T02:53:07;19.12;78.64
68276;DHT22;55106;51.438;-0.098;2022-08-14T02:55:32;19.09;78.74
68276;DHT22;55106;51.438;-0.098;2022-08-14T02:57:58;19.11;78.68
68276;DHT22;55106;51.438;-0.098;2022-08-14T03:00:24;19.08;78.65
68276;DHT22;55106;51.438;-0.098;2022-08-14T03:02:49;19.08;78.67
68276;DHT22;55106;51.438;-0.098;2022-08-14T03:05:17;19.01;78.92
68276;DHT22;55106;51.438;-0.098;2022-08-14T03:07:43;19.04;79.07
68276;DHT22;55106;51.438;-0.098;2022-08-14T03:10:09;19.04;78.89
68276;DHT22;55106;51.438;-0.098;2022-08-14T03:12:35;18.99;79.08
68276;DHT22;55106;51.438;-0.098;2022-08-14T03:15:01;18.95;79.31
68276;DHT22;55106;51.438;-0.098;2022-08-14T03:17:34;18.95;79.46
68276;DHT22;55106;51.438;-0.098;2022-08-14T03:20:00;18.87;79.64
68276;DHT22;55106;51.438;-0.098;2022-08-14T03:22:25;18.81;79.81
68276;DHT22;55106;51.438;-0.098;2022-08-14T03:24:51;18.77;79.88
68276;DHT22;55106;51.438;-0.098;2022-08-14T03:27:17;18.71;80.22
68276;DHT22;55106;51.438;-0.098;2022-08-14T03:29:42;18.63;80.50
68276;DHT22;55106;51.438;-0.098;2022-08-14T03:32:08;18.60;80.58
68276;DHT22;55106;51.438;-0.098;2022-08-14T03:34:33;18.53;80.84
68276;DHT22;55106;51.438;-0.098;2022-08-14T03:36:59;18.51;81.14
68276;DHT22;55106;51.438;-0.098;2022-08-14T03:39:24;18.50;81.07
68276;DHT22;55106;51.438;-0.098;2022-08-14T03:41:54;18.54;81.09
68276;DHT22;55106;51.438;-0.098;2022-08-14T03:44:19;18.54;81.40
68276;DHT22;55106;51.438;-0.098;2022-08-14T03:46:45;18.60;81.13
68276;DHT22;55106;51.438;-0.098;2022-08-14T03:49:10;18.63;81.11
68276;DHT22;55106;51.438;-0.098;2022-08-14T03:51:36;18.65;81.07
68276;DHT22;55106;51.438;-0.098;2022-08-14T03:54:04;18.67;80.92
68276;DHT22;55106;51.438;-0.098;2022-08-14T03:56:32;18.64;80.94
68276;DHT22;55106;51.438;-0.098;2022-08-14T03:59:00;18.59;81.14
68276;DHT22;55106;51.438;-0.098;2022-08-14T04:01:29;18.57;81.40
68276;DHT22;55106;51.438;-0.098;2022-08-14T04:03:55;18.57;81.32
68276;DHT22;55106;51.438;-0.098;2022-08-14T04:06:29;18.54;81.43
68276;DHT22;55106;51.438;-0.098;2022-08-14T04:08:55;18.56;81.51
68276;DHT22;55106;51.438;-0.098;2022-08-14T04:11:20;18.51;81.45
68276;DHT22;55106;51.438;-0.098;2022-08-14T04:13:46;18.50;81.53
68276;DHT22;55106;51.438;-0.098;2022-08-14T04:16:15;18.53;81.61
68276;DHT22;55106;51.438;-0.098;2022-08-14T04:18:42;18.54;81.53
68276;DHT22;55106;51.438;-0.098;2022-08-14T04:21:10;18.54;81.58
68276;DHT22;55106;51.438;-0.098;2022-08-14T04:23:36;18.54;81.52
68276;DHT22;55106;51.438;-0.098;2022-08-14T04:26:03;18.56;81.64
68276;DHT22;55106;51.438;-0.098;2022-08-14T04:28:29;18.59;81.50
68276;DHT22;55106;51.438;-0.098;2022-08-14T04:30:54;18.57;81.64
68276;DHT22;55106;51.438;-0.098;2022-08-14T04:33:20;18.57;81.64
68276;DHT22;55106;51.438;-0.098;2022-08-14T04:35:48;18.60;81.54
68276;DHT22;55106;51.438;-0.098;2022-08-14T04:38:15;18.59;81.54
68276;DHT22;55106;51.438;-0.098;2022-08-14T04:41:00;18.57;81.36
68276;DHT22;55106;51.438;-0.098;2022-08-14T04:43:44;18.56;81.23
68276;DHT22;55106;51.438;-0.098;2022-08-14T04:46:16;18.56;80.89
68276;DHT22;55106;51.438;-0.098;2022-08-14T04:48:42;18.54;80.85
68276;DHT22;55106;51.438;-0.098;2022-08-14T04:51:12;18.50;80.66
68276;DHT22;55106;51.438;-0.098;2022-08-14T04:53:40;18.47;80.51
68276;DHT22;55106;51.438;-0.098;2022-08-14T04:56:14;18.47;80.55
68276;DHT22;55106;51.438;-0.098;2022-08-14T04:58:40;18.40;80.50
68276;DHT22;55106;51.438;-0.098;2022-08-14T05:01:10;18.36;80.63
68276;DHT22;55106;51.438;-0.098;2022-08-14T05:03:36;18.33;80.70
68276;DHT22;55106;51.438;-0.098;2022-08-14T05:06:07;18.33;80.79
68276;DHT22;55106;51.438;-0.098;2022-08-14T05:08:34;18.34;80.54
68276;DHT22;55106;51.438;-0.098;2022-08-14T05:11:02;18.39;80.44
68276;DHT22;55106;51.438;-0.098;2022-08-14T05:13:29;18.46;80.15
68276;DHT22;55106;51.438;-0.098;2022-08-14T05:15:57;18.46;79.92
68276;DHT22;55106;51.438;-0.098;2022-08-14T05:18:31;18.54;79.55
68276;DHT22;55106;51.438;-0.098;2022-08-14T05:20:58;18.61;79.23
68276;DHT22;55106;51.438;-0.098;2022-08-14T05:23:27;18.68;79.01
68276;DHT22;55106;51.438;-0.098;2022-08-14T05:25:55;18.74;78.82
68276;DHT22;55106;51.438;-0.098;2022-08-14T05:28:30;18.78;78.62
68276;DHT22;55106;51.438;-0.098;2022-08-14T05:30:58;18.84;78.35
68276;DHT22;55106;51.438;-0.098;2022-08-14T05:33:26;18.98;78.07
68276;DHT22;55106;51.438;-0.098;2022-08-14T05:35:54;19.05;77.75
68276;DHT22;55106;51.438;-0.098;2022-08-14T05:38:30;19.14;77.46
68276;DHT22;55106;51.438;-0.098;2022-08-14T05:41:02;19.20;77.12
68276;DHT22;55106;51.438;-0.098;2022-08-14T05:43:29;19.33;76.88
68276;DHT22;55106;51.438;-0.098;2022-08-14T05:45:56;19.42;76.66
68276;DHT22;55106;51.438;-0.098;2022-08-14T05:48:22;19.49;76.32
68276;DHT22;55106;51.438;-0.098;2022-08-14T05:50:49;19.59;75.94
68276;DHT22;55106;51.438;-0.098;2022-08-14T05:53:15;19.66;75.85
68276;DHT22;55106;51.438;-0.098;2022-08-14T05:55:40;19.80;75.47
68276;DHT22;55106;51.438;-0.098;2022-08-14T05:58:06;19.84;75.14
68276;DHT22;55106;51.438;-0.098;2022-08-14T06:00:38;19.94;74.94
68276;DHT22;55106;51.438;-0.098;2022-08-14T06:03:06;20.01;74.45
68276;DHT22;55106;51.438;-0.098;2022-08-14T06:05:33;20.11;74.27
68276;DHT22;55106;51.438;-0.098;2022-08-14T06:07:59;20.17;73.97
68276;DHT22;55106;51.438;-0.098;2022-08-14T06:10:26;20.29;73.79
68276;DHT22;55106;51.438;-0.098;2022-08-14T06:12:52;20.39;73.36
68276;DHT22;55106;51.438;-0.098;2022-08-14T06:15:17;20.51;73.11
68276;DHT22;55106;51.438;-0.098;2022-08-14T06:17:45;20.57;72.62
68276;DHT22;55106;51.438;-0.098;2022-08-14T06:20:11;20.75;72.25
68276;DHT22;55106;51.438;-0.098;2022-08-14T06:22:37;20.81;71.85
68276;DHT22;55106;51.438;-0.098;2022-08-14T06:25:03;21.06;71.22
68276;DHT22;55106;51.438;-0.098;2022-08-14T06:27:37;21.26;70.57
68276;DHT22;55106;51.438;-0.098;2022-08-14T06:30:08;21.58;69.90
68276;DHT22;55106;51.438;-0.098;2022-08-14T06:32:34;21.78;68.96
68276;DHT22;55106;51.438;-0.098;2022-08-14T06:35:01;22.03;68.37
68276;DHT22;55106;51.438;-0.098;2022-08-14T06:37:26;22.47;67.12
68276;DHT22;55106;51.438;-0.098;2022-08-14T06:39:52;23.02;65.54
68276;DHT22;55106;51.438;-0.098;2022-08-14T06:42:18;23.61;64.04
68276;DHT22;55106;51.438;-0.098;2022-08-14T06:44:43;24.08;62.51
68276;DHT22;55106;51.438;-0.098;2022-08-14T06:47:09;24.39;61.51
68276;DHT22;55106;51.438;-0.098;2022-08-14T06:49:34;24.70;60.61
68276;DHT22;55106;51.438;-0.098;2022-08-14T06:52:02;25.24;58.76
68276;DHT22;55106;51.438;-0.098;2022-08-14T06:54:27;25.65;58.32
68276;DHT22;55106;51.438;-0.098;2022-08-14T06:56:53;25.92;57.22
68276;DHT22;55106;51.438;-0.098;2022-08-14T06:59:18;26.30;56.21
68276;DHT22;55106;51.438;-0.098;2022-08-14T07:01:44;26.51;55.80
68276;DHT22;55106;51.438;-0.098;2022-08-14T07:04:28;26.58;55.63
68276;DHT22;55106;51.438;-0.098;2022-08-14T07:07:11;27.33;53.52
68276;DHT22;55106;51.438;-0.098;2022-08-14T07:09:37;27.19;53.84
68276;DHT22;55106;51.438;-0.098;2022-08-14T07:12:03;27.55;53.48
68276;DHT22;55106;51.438;-0.098;2022-08-14T07:14:28;27.88;52.47
68276;DHT22;55106;51.438;-0.098;2022-08-14T07:16:53;27.98;51.57
68276;DHT22;55106;51.438;-0.098;2022-08-14T07:19:19;27.95;51.49
68276;DHT22;55106;51.438;-0.098;2022-08-14T07:21:44;27.72;52.42
68276;DHT22;55106;51.438;-0.098;2022-08-14T07:24:10;28.01;51.56
68276;DHT22;55106;51.438;-0.098;2022-08-14T07:26:35;28.33;51.12
68276;DHT22;55106;51.438;-0.098;2022-08-14T07:29:01;28.56;49.99
68276;DHT22;55106;51.438;-0.098;2022-08-14T07:31:26;29.08;49.18
68276;DHT22;55106;51.438;-0.098;2022-08-14T07:33:51;29.52;47.95
68276;DHT22;55106;51.438;-0.098;2022-08-14T07:36:19;29.67;47.24
68276;DHT22;55106;51.438;-0.098;2022-08-14T07:38:44;29.86;47.11
68276;DHT22;55106;51.438;-0.098;2022-08-14T07:41:11;30.11;46.75
68276;DHT22;55106;51.438;-0.098;2022-08-14T07:43:38;30.46;45.37
68276;DHT22;55106;51.438;-0.098;2022-08-14T07:46:04;30.20;46.13
68276;DHT22;55106;51.438;-0.098;2022-08-14T07:48:30;30.31;45.85
68276;DHT22;55106;51.438;-0.098;2022-08-14T07:50:55;30.79;44.80
68276;DHT22;55106;51.438;-0.098;2022-08-14T07:53:21;31.47;43.52
68276;DHT22;55106;51.438;-0.098;2022-08-14T07:55:47;31.84;42.71
68276;DHT22;55106;51.438;-0.098;2022-08-14T07:58:14;31.88;42.65
68276;DHT22;55106;51.438;-0.098;2022-08-14T08:00:41;32.61;41.52
68276;DHT22;55106;51.438;-0.098;2022-08-14T08:03:08;32.54;41.33
68276;DHT22;55106;51.438;-0.098;2022-08-14T08:05:35;32.22;42.37
68276;DHT22;55106;51.438;-0.098;2022-08-14T08:08:02;32.90;40.41
68276;DHT22;55106;51.438;-0.098;2022-08-14T08:10:28;32.90;40.24
68276;DHT22;55106;51.438;-0.098;2022-08-14T08:13:19;32.57;40.56
68276;DHT22;55106;51.438;-0.098;2022-08-14T08:15:53;32.44;40.87
68276;DHT22;55106;51.438;-0.098;2022-08-14T08:18:19;32.81;40.65
68276;DHT22;55106;51.438;-0.098;2022-08-14T08:20:47;32.67;39.87
68276;DHT22;55106;51.438;-0.098;2022-08-14T08:23:15;32.95;40.24
68276;DHT22;55106;51.438;-0.098;2022-08-14T08:25:42;32.82;39.69
68276;DHT22;55106;51.438;-0.098;2022-08-14T08:28:15;32.13;40.81
68276;DHT22;55106;51.438;-0.098;2022-08-14T08:30:53;32.71;39.62
68276;DHT22;55106;51.438;-0.098;2022-08-14T08:33:21;32.29;40.28
68276;DHT22;55106;51.438;-0.098;2022-08-14T08:35:47;33.07;39.22
68276;DHT22;55106;51.438;-0.098;2022-08-14T08:38:18;33.89;37.85
68276;DHT22;55106;51.438;-0.098;2022-08-14T08:40:46;34.04;37.47
68276;DHT22;55106;51.438;-0.098;2022-08-14T08:45:55;34.17;36.82
68276;DHT22;55106;51.438;-0.098;2022-08-14T08:48:22;34.14;37.83
68276;DHT22;55106;51.438;-0.098;2022-08-14T08:50:49;34.56;36.43
68276;DHT22;55106;51.438;-0.098;2022-08-14T08:53:15;34.68;36.55
68276;DHT22;55106;51.438;-0.098;2022-08-14T08:55:42;34.78;36.42
68276;DHT22;55106;51.438;-0.098;2022-08-14T08:58:11;34.88;36.36
68276;DHT22;55106;51.438;-0.098;2022-08-14T09:00:39;34.65;36.78
68276;DHT22;55106;51.438;-0.098;2022-08-14T09:03:10;35.37;35.82
68276;DHT22;55106;51.438;-0.098;2022-08-14T09:05:37;35.37;34.85
68276;DHT22;55106;51.438;-0.098;2022-08-14T09:10:34;35.17;35.20
68276;DHT22;55106;51.438;-0.098;2022-08-14T09:13:01;35.37;34.05
68276;DHT22;55106;51.438;-0.098;2022-08-14T09:15:26;35.95;33.56
68276;DHT22;55106;51.438;-0.098;2022-08-14T09:17:53;36.13;32.68
68276;DHT22;55106;51.438;-0.098;2022-08-14T09:20:18;36.78;31.92
68276;DHT22;55106;51.438;-0.098;2022-08-14T09:22:44;37.02;31.54
68276;DHT22;55106;51.438;-0.098;2022-08-14T09:25:10;36.29;31.65
68276;DHT22;55106;51.438;-0.098;2022-08-14T09:27:36;35.75;32.89
68276;DHT22;55106;51.438;-0.098;2022-08-14T09:30:06;36.42;32.43
68276;DHT22;55106;51.438;-0.098;2022-08-14T09:33:14;36.71;32.02
68276;DHT22;55106;51.438;-0.098;2022-08-14T09:38:37;37.14;30.70
68276;DHT22;55106;51.438;-0.098;2022-08-14T09:46:38;37.15;30.40
68276;DHT22;55106;51.438;-0.098;2022-08-14T09:49:05;37.59;29.97
68276;DHT22;55106;51.438;-0.098;2022-08-14T09:51:32;38.47;27.92
68276;DHT22;55106;51.438;-0.098;2022-08-14T09:54:05;38.23;28.71
68276;DHT22;55106;51.438;-0.098;2022-08-14T09:56:44;38.21;27.86
68276;DHT22;55106;51.438;-0.098;2022-08-14T09:59:12;38.58;28.22
68276;DHT22;55106;51.438;-0.098;2022-08-14T10:01:38;37.94;28.50
68276;DHT22;55106;51.438;-0.098;2022-08-14T10:04:36;37.38;29.77
68276;DHT22;55106;51.438;-0.098;2022-08-14T10:07:04;36.62;29.56
68276;DHT22;55106;51.438;-0.098;2022-08-14T10:09:30;37.02;29.48
68276;DHT22;55106;51.438;-0.098;2022-08-14T10:11:57;37.59;27.98
68276;DHT22;55106;51.438;-0.098;2022-08-14T10:14:24;37.84;27.19
68276;DHT22;55106;51.438;-0.098;2022-08-14T10:16:54;37.61;28.03
68276;DHT22;55106;51.438;-0.098;2022-08-14T10:19:22;37.96;28.06
68276;DHT22;55106;51.438;-0.098;2022-08-14T10:22:22;37.66;27.41
68276;DHT22;55106;51.438;-0.098;2022-08-14T10:24:53;38.24;26.75
68276;DHT22;55106;51.438;-0.098;2022-08-14T10:27:23;37.84;27.28
68276;DHT22;55106;51.438;-0.098;2022-08-14T10:29:54;37.72;27.82
68276;DHT22;55106;51.438;-0.098;2022-08-14T10:32:20;37.54;27.86
68276;DHT22;55106;51.438;-0.098;2022-08-14T10:34:47;37.63;27.60
68276;DHT22;55106;51.438;-0.098;2022-08-14T10:37:16;37.90;28.42
68276;DHT22;55106;51.438;-0.098;2022-08-14T10:39:44;37.69;27.31
68276;DHT22;55106;51.438;-0.098;2022-08-14T10:42:12;36.74;28.26
68276;DHT22;55106;51.438;-0.098;2022-08-14T10:44:41;36.60;28.11
68276;DHT22;55106;51.438;-0.098;2022-08-14T10:47:08;37.06;28.28
68276;DHT22;55106;51.438;-0.098;2022-08-14T10:49:36;36.78;28.26
68276;DHT22;55106;51.438;-0.098;2022-08-14T10:52:07;36.62;28.19
68276;DHT22;55106;51.438;-0.098;2022-08-14T10:54:41;37.06;27.98
68276;DHT22;55106;51.438;-0.098;2022-08-14T11:02:30;35.50;29.05
68276;DHT22;55106;51.438;-0.098;2022-08-14T11:05:09;35.54;28.95
68276;DHT22;55106;51.438;-0.098;2022-08-14T11:10:26;34.98;28.50
68276;DHT22;55106;51.438;-0.098;2022-08-14T11:13:02;34.89;28.71
68276;DHT22;55106;51.438;-0.098;2022-08-14T11:15:29;34.63;28.83
68276;DHT22;55106;51.438;-0.098;2022-08-14T11:17:54;34.48;28.62
68276;DHT22;55106;51.438;-0.098;2022-08-14T11:20:25;34.10;28.07
68276;DHT22;55106;51.438;-0.098;2022-08-14T11:22:53;34.42;27.96
68276;DHT22;55106;51.438;-0.098;2022-08-14T11:25:21;33.63;28.17
68276;DHT22;55106;51.438;-0.098;2022-08-14T11:27:52;34.11;27.66
68276;DHT22;55106;51.438;-0.098;2022-08-14T11:30:24;34.23;26.87
68276;DHT22;55106;51.438;-0.098;2022-08-14T11:32:50;33.80;27.28
68276;DHT22;55106;51.438;-0.098;2022-08-14T11:35:23;33.90;28.18
68276;DHT22;55106;51.438;-0.098;2022-08-14T11:40:17;33.67;28.31
68276;DHT22;55106;51.438;-0.098;2022-08-14T11:42:47;33.97;25.59
68276;DHT22;55106;51.438;-0.098;2022-08-14T11:45:14;33.55;28.04
68276;DHT22;55106;51.438;-0.098;2022-08-14T11:47:40;33.72;28.44
68276;DHT22;55106;51.438;-0.098;2022-08-14T11:50:17;33.57;27.76
68276;DHT22;55106;51.438;-0.098;2022-08-14T11:52:44;33.74;26.30
68276;DHT22;55106;51.438;-0.098;2022-08-14T11:55:12;33.84;26.52
68276;DHT22;55106;51.438;-0.098;2022-08-14T11:57:42;33.93;25.83
68276;DHT22;55106;51.438;-0.098;2022-08-14T12:00:11;34.21;25.97
68276;DHT22;55106;51.438;-0.098;2022-08-14T12:02:49;34.11;26.04
68276;DHT22;55106;51.438;-0.098;2022-08-14T12:05:14;34.18;25.56
68276;DHT22;55106;51.438;-0.098;2022-08-14T12:07:47;33.84;26.40
68276;DHT22;55106;51.438;-0.098;2022-08-14T12:10:16;34.18;26.23
68276;DHT22;55106;51.438;-0.098;2022-08-14T12:12:42;33.84;26.80
68276;DHT22;55106;51.438;-0.098;2022-08-14T12:15:07;34.32;26.89
68276;DHT22;55106;51.438;-0.098;2022-08-14T12:17:44;34.08;26.15
68276;DHT22;55106;51.438;-0.098;2022-08-14T12:20:10;33.62;26.39
68276;DHT22;55106;51.438;-0.098;2022-08-14T12:22:37;33.94;26.87
68276;DHT22;55106;51.438;-0.098;2022-08-14T12:25:06;33.52;27.11
68276;DHT22;55106;51.438;-0.098;2022-08-14T12:27:35;33.30;27.33
68276;DHT22;55106;51.438;-0.098;2022-08-14T12:30:01;33.53;26.95
68276;DHT22;55106;51.438;-0.098;2022-08-14T12:32:40;32.80;26.23
68276;DHT22;55106;51.438;-0.098;2022-08-14T12:35:06;33.33;26.31
68276;DHT22;55106;51.438;-0.098;2022-08-14T12:37:32;33.86;25.46
68276;DHT22;55106;51.438;-0.098;2022-08-14T12:40:27;33.97;25.95
68276;DHT22;55106;51.438;-0.098;2022-08-14T12:42:59;33.84;25.60
68276;DHT22;55106;51.438;-0.098;2022-08-14T12:45:33;33.78;26.26
68276;DHT22;55106;51.438;-0.098;2022-08-14T12:48:02;33.32;26.41
68276;DHT22;55106;51.438;-0.098;2022-08-14T12:50:41;33.28;27.36
68276;DHT22;55106;51.438;-0.098;2022-08-14T12:53:08;33.00;27.29
68276;DHT22;55106;51.438;-0.098;2022-08-14T12:55:34;32.77;27.14
68276;DHT22;55106;51.438;-0.098;2022-08-14T12:58:02;32.63;27.80
68276;DHT22;55106;51.438;-0.098;2022-08-14T13:00:31;32.33;28.54
68276;DHT22;55106;51.438;-0.098;2022-08-14T13:02:57;32.53;28.56
68276;DHT22;55106;51.438;-0.098;2022-08-14T13:05:31;32.60;28.66
68276;DHT22;55106;51.438;-0.098;2022-08-14T13:07:58;32.30;27.47
68276;DHT22;55106;51.438;-0.098;2022-08-14T13:10:24;32.27;27.48
68276;DHT22;55106;51.438;-0.098;2022-08-14T13:12:54;32.15;27.41
68276;DHT22;55106;51.438;-0.098;2022-08-14T13:15:20;31.92;27.96
68276;DHT22;55106;51.438;-0.098;2022-08-14T13:17:48;31.84;28.19
68276;DHT22;55106;51.438;-0.098;2022-08-14T13:20:16;31.65;28.56
68276;DHT22;55106;51.438;-0.098;2022-08-14T13:22:43;31.74;28.40
68276;DHT22;55106;51.438;-0.098;2022-08-14T13:25:18;31.86;28.59
68276;DHT22;55106;51.438;-0.098;2022-08-14T13:27:46;31.78;29.21
68276;DHT22;55106;51.438;-0.098;2022-08-14T13:30:13;32.04;28.88
68276;DHT22;55106;51.438;-0.098;2022-08-14T13:32:39;31.96;28.51
68276;DHT22;55106;51.438;-0.098;2022-08-14T13:35:10;31.90;28.84
68276;DHT22;55106;51.438;-0.098;2022-08-14T13:37:35;32.12;28.55
68276;DHT22;55106;51.438;-0.098;2022-08-14T13:40:02;31.99;27.89
68276;DHT22;55106;51.438;-0.098;2022-08-14T13:42:28;31.92;28.35
68276;DHT22;55106;51.438;-0.098;2022-08-14T13:44:56;31.77;28.28
68276;DHT22;55106;51.438;-0.098;2022-08-14T13:47:23;31.71;28.45
68276;DHT22;55106;51.438;-0.098;2022-08-14T13:49:58;31.67;28.56
68276;DHT22;55106;51.438;-0.098;2022-08-14T13:52:29;31.64;28.48
68276;DHT22;55106;51.438;-0.098;2022-08-14T13:54:58;31.65;28.05
68276;DHT22;55106;51.438;-0.098;2022-08-14T13:57:27;31.64;28.33
68276;DHT22;55106;51.438;-0.098;2022-08-14T13:59:54;31.48;27.93
68276;DHT22;55106;51.438;-0.098;2022-08-14T14:02:20;31.44;27.97
68276;DHT22;55106;51.438;-0.098;2022-08-14T14:04:47;31.37;27.86
68276;DHT22;55106;51.438;-0.098;2022-08-14T14:07:15;31.44;28.35
68276;DHT22;55106;51.438;-0.098;2022-08-14T14:09:45;31.40;27.83
68276;DHT22;55106;51.438;-0.098;2022-08-14T14:12:12;31.20;27.96
68276;DHT22;55106;51.438;-0.098;2022-08-14T14:14:39;31.35;28.01
68276;DHT22;55106;51.438;-0.098;2022-08-14T14:17:09;31.38;28.24
68276;DHT22;55106;51.438;-0.098;2022-08-14T14:19:36;31.24;28.59
68276;DHT22;55106;51.438;-0.098;2022-08-14T14:22:03;31.23;28.15
68276;DHT22;55106;51.438;-0.098;2022-08-14T14:24:33;31.21;27.85
68276;DHT22;55106;51.438;-0.098;2022-08-14T14:27:00;31.30;28.16
68276;DHT22;55106;51.438;-0.098;2022-08-14T14:29:29;31.37;27.89
68276;DHT22;55106;51.438;-0.098;2022-08-14T14:31:57;31.37;27.48
68276;DHT22;55106;51.438;-0.098;2022-08-14T14:34:25;31.47;28.03
68276;DHT22;55106;51.438;-0.098;2022-08-14T14:36:51;31.61;27.12
68276;DHT22;55106;51.438;-0.098;2022-08-14T14:39:24;31.52;26.83
68276;DHT22;55106;51.438;-0.098;2022-08-14T14:41:52;31.50;27.04
68276;DHT22;55106;51.438;-0.098;2022-08-14T14:44:22;31.54;26.75
68276;DHT22;55106;51.438;-0.098;2022-08-14T14:46:48;31.35;26.46
68276;DHT22;55106;51.438;-0.098;2022-08-14T14:49:16;31.38;26.31
68276;DHT22;55106;51.438;-0.098;2022-08-14T14:51:45;31.09;26.72
68276;DHT22;55106;51.438;-0.098;2022-08-14T14:54:12;31.09;26.91
68276;DHT22;55106;51.438;-0.098;2022-08-14T14:56:39;31.10;27.17
68276;DHT22;55106;51.438;-0.098;2022-08-14T14:59:05;31.10;27.07
68276;DHT22;55106;51.438;-0.098;2022-08-14T15:01:33;31.03;27.02
68276;DHT22;55106;51.438;-0.098;2022-08-14T15:03:59;31.03;26.65
68276;DHT22;55106;51.438;-0.098;2022-08-14T15:06:28;31.06;26.59
68276;DHT22;55106;51.438;-0.098;2022-08-14T15:08:54;31.03;26.56
68276;DHT22;55106;51.438;-0.098;2022-08-14T15:11:20;31.06;26.94
68276;DHT22;55106;51.438;-0.098;2022-08-14T15:13:46;31.00;27.12
68276;DHT22;55106;51.438;-0.098;2022-08-14T15:16:11;31.19;27.31
68276;DHT22;55106;51.438;-0.098;2022-08-14T15:18:38;31.31;27.55
68276;DHT22;55106;51.438;-0.098;2022-08-14T15:21:03;31.30;27.09
68276;DHT22;55106;51.438;-0.098;2022-08-14T15:23:30;31.31;27.23
68276;DHT22;55106;51.438;-0.098;2022-08-14T15:25:57;31.24;27.12
68276;DHT22;55106;51.438;-0.098;2022-08-14T15:28:23;31.30;27.26
68276;DHT22;55106;51.438;-0.098;2022-08-14T15:30:50;31.30;27.35
68276;DHT22;55106;51.438;-0.098;2022-08-14T15:33:15;31.27;27.14
68276;DHT22;55106;51.438;-0.098;2022-08-14T15:36:04;31.41;27.78
68276;DHT22;55106;51.438;-0.098;2022-08-14T15:38:32;31.42;27.82
68276;DHT22;55106;51.438;-0.098;2022-08-14T15:41:08;31.55;27.43
68276;DHT22;55106;51.438;-0.098;2022-08-14T15:43:34;31.45;27.73
68276;DHT22;55106;51.438;-0.098;2022-08-14T15:46:01;31.30;27.37